sensor_id;sensor_type;location;lat;lon;timestamp;temperature;humidity
52543;DHT22;38449;52.696;6.186;2023-04-08T00:01:10;6.30;99.90
52543;DHT22;38449;52.696;6.186;2023-04-08T00:03:36;6.20;99.90
52543;DHT22;38449;52.696;6.186;2023-04-08T00:06:03;6.20;99.90
52543;DHT22;38449;52.696;6.186;2023-04-08T00:08:36;6.20;99.90
52543;DHT22;38449;52.696;6.186;2023-04-08T00:11:02;6.20;99.90
52543;DHT22;38449;52.696;6.186;2023-04-08T00:13:35;6.20;99.90
52543;DHT22;38449;52.696;6.186;2023-04-08T00:16:01;6.10;99.90
52543;DHT22;38449;52.696;6.186;2023-04-08T00:18:28;6.10;99.90
52543;DHT22;38449;52.696;6.186;2023-04-08T00:20:55;6.00;99.90
52543;DHT22;38449;52.696;6.186;2023-04-08T00:23:22;6.00;99.90
52543;DHT22;38449;52.696;6.186;2023-04-08T00:25:48;5.90;99.90
52543;DHT22;38449;52.696;6.186;2023-04-08T00:28:15;5.90;99.90
52543;DHT22;38449;52.696;6.186;2023-04-08T00:30:47;5.90;99.90
52543;DHT22;38449;52.696;6.186;2023-04-08T00:33:14;5.90;99.90
52543;DHT22;38449;52.696;6.186;2023-04-08T00:35:41;5.80;99.90
52543;DHT22;38449;52.696;6.186;2023-04-08T00:38:08;5.70;99.90
52543;DHT22;38449;52.696;6.186;2023-04-08T00:40:35;5.70;99.90
52543;DHT22;38449;52.696;6.186;2023-04-08T00:43:07;5.70;99.90
52543;DHT22;38449;52.696;6.186;2023-04-08T00:45:34;5.60;99.90
52543;DHT22;38449;52.696;6.186;2023-04-08T00:48:07;5.60;99.90
52543;DHT22;38449;52.696;6.186;2023-04-08T00:50:33;5.60;99.90
52543;DHT22;38449;52.696;6.186;2023-04-08T00:53:03;5.50;99.90
52543;DHT22;38449;52.696;6.186;2023-04-08T00:55:29;5.50;99.90
52543;DHT22;38449;52.696;6.186;2023-04-08T00:57:56;5.50;99.90
52543;DHT22;38449;52.696;6.186;2023-04-08T01:00:23;5.40;99.90
52543;DHT22;38449;52.696;6.186;2023-04-08T01:03:26;5.30;99.90
52543;DHT22;38449;52.696;6.186;2023-04-08T01:06:21;5.40;99.90
52543;DHT22;38449;52.696;6.186;2023-04-08T01:08:58;5.30;99.90
52543;DHT22;38449;52.696;6.186;2023-04-08T01:11:34;5.40;99.90
52543;DHT22;38449;52.696;6.186;2023-04-08T01:14:04;5.20;99.90
52543;DHT22;38449;52.696;6.186;2023-04-08T01:16:33;5.20;99.90
52543;DHT22;38449;52.696;6.186;2023-04-08T01:19:00;5.20;99.90
52543;DHT22;38449;52.696;6.186;2023-04-08T01:21:27;5.10;99.90
52543;DHT22;38449;52.696;6.186;2023-04-08T01:24:10;5.10;99.90
52543;DHT22;38449;52.696;6.186;2023-04-08T01:26:42;5.10;99.90
52543;DHT22;38449;52.696;6.186;2023-04-08T01:29:10;5.00;99.90
52543;DHT22;38449;52.696;6.186;2023-04-08T01:31:38;5.00;99.90
52543;DHT22;38449;52.696;6.186;2023-04-08T01:34:06;5.00;99.90
52543;DHT22;38449;52.696;6.186;2023-04-08T01:36:33;5.00;99.90
52543;DHT22;38449;52.696;6.186;2023-04-08T01:39:02;4.90;99.90
52543;DHT22;38449;52.696;6.186;2023-04-08T01:41:33;4.90;99.90
52543;DHT22;38449;52.696;6.186;2023-04-08T01:44:00;4.80;99.90
52543;DHT22;38449;52.696;6.186;2023-04-08T01:46:28;4.80;99.90
52543;DHT22;38449;52.696;6.186;2023-04-08T01:48:56;4.80;99.90
52543;DHT22;38449;52.696;6.186;2023-04-08T01:51:30;4.80;99.90
52543;DHT22;38449;52.696;6.186;2023-04-08T01:53:57;4.80;99.90
52543;DHT22;38449;52.696;6.186;2023-04-08T01:56:37;4.80;99.90
52543;DHT22;38449;52.696;6.186;2023-04-08T01:59:13;4.80;99.90
52543;DHT22;38449;52.696;6.186;2023-04-08T02:01:43;4.70;99.90
52543;DHT22;38449;52.696;6.186;2023-04-08T02:04:09;4.70;99.90
52543;DHT22;38449;52.696;6.186;2023-04-08T02:06:39;4.70;99.90
52543;DHT22;38449;52.696;6.186;2023-04-08T02:09:06;4.70;99.90
52543;DHT22;38449;52.696;6.186;2023-04-08T02:11:33;4.70;99.90
52543;DHT22;38449;52.696;6.186;2023-04-08T02:14:00;4.70;99.90
52543;DHT22;38449;52.696;6.186;2023-04-08T02:16:33;4.60;99.90
52543;DHT22;38449;52.696;6.186;2023-04-08T02:19:10;4.70;99.90
52543;DHT22;38449;52.696;6.186;2023-04-08T02:21:45;4.60;99.90
52543;DHT22;38449;52.696;6.186;2023-04-08T02:24:16;4.60;99.90
52543;DHT22;38449;52.696;6.186;2023-04-08T02:26:43;4.50;99.90
52543;DHT22;38449;52.696;6.186;2023-04-08T02:29:18;4.50;99.90
52543;DHT22;38449;52.696;6.186;2023-04-08T02:31:45;4.50;99.90
52543;DHT22;38449;52.696;6.186;2023-04-08T02:34:12;4.50;99.90
52543;DHT22;38449;52.696;6.186;2023-04-08T02:36:40;4.40;99.90
52543;DHT22;38449;52.696;6.186;2023-04-08T02:39:08;4.40;99.90
52543;DHT22;38449;52.696;6.186;2023-04-08T02:41:34;4.40;99.90
52543;DHT22;38449;52.696;6.186;2023-04-08T02:44:01;4.30;99.90
52543;DHT22;38449;52.696;6.186;2023-04-08T02:46:28;4.30;99.90
52543;DHT22;38449;52.696;6.186;2023-04-08T02:48:54;4.30;99.90
52543;DHT22;38449;52.696;6.186;2023-04-08T02:51:21;4.20;99.90
52543;DHT22;38449;52.696;6.186;2023-04-08T02:53:47;4.20;99.90
52543;DHT22;38449;52.696;6.186;2023-04-08T02:56:20;4.20;99.90
52543;DHT22;38449;52.696;6.186;2023-04-08T02:58:53;4.20;99.90
52543;DHT22;38449;52.696;6.186;2023-04-08T03:01:26;4.10;99.90
52543;DHT22;38449;52.696;6.186;2023-04-08T03:03:52;4.10;99.90
52543;DHT22;38449;52.696;6.186;2023-04-08T03:06:20;4.10;99.90
52543;DHT22;38449;52.696;6.186;2023-04-08T03:08:47;4.10;99.90
52543;DHT22;38449;52.696;6.186;2023-04-08T03:11:13;4.00;99.90
52543;DHT22;38449;52.696;6.186;2023-04-08T03:13:39;4.10;99.90
52543;DHT22;38449;52.696;6.186;2023-04-08T03:16:06;4.00;99.90
52543;DHT22;38449;52.696;6.186;2023-04-08T03:18:33;3.90;99.90
52543;DHT22;38449;52.696;6.186;2023-04-08T03:20:59;3.90;99.90
52543;DHT22;38449;52.696;6.186;2023-04-08T03:23:26;3.90;99.90
52543;DHT22;38449;52.696;6.186;2023-04-08T03:25:54;3.80;99.90
52543;DHT22;38449;52.696;6.186;2023-04-08T03:28:20;3.80;99.90
52543;DHT22;38449;52.696;6.186;2023-04-08T03:30:53;3.80;99.90
52543;DHT22;38449;52.696;6.186;2023-04-08T03:33:20;3.80;99.90
52543;DHT22;38449;52.696;6.186;2023-04-08T03:35:47;3.70;99.90
52543;DHT22;38449;52.696;6.186;2023-04-08T03:38:13;3.70;99.90
52543;DHT22;38449;52.696;6.186;2023-04-08T03:40:40;3.70;99.90
52543;DHT22;38449;52.696;6.186;2023-04-08T03:43:06;3.70;99.90
52543;DHT22;38449;52.696;6.186;2023-04-08T03:45:33;3.70;99.90
52543;DHT22;38449;52.696;6.186;2023-04-08T03:48:06;3.60;99.90
52543;DHT22;38449;52.696;6.186;2023-04-08T03:50:33;3.60;99.90
52543;DHT22;38449;52.696;6.186;2023-04-08T03:52:59;3.60;99.90
52543;DHT22;38449;52.696;6.186;2023-04-08T03:55:25;3.60;99.90
52543;DHT22;38449;52.696;6.186;2023-04-08T03:57:52;3.50;99.90
52543;DHT22;38449;52.696;6.186;2023-04-08T04:00:24;3.50;99.90
52543;DHT22;38449;52.696;6.186;2023-04-08T04:02:50;3.50;99.90
52543;DHT22;38449;52.696;6.186;2023-04-08T04:05:23;3.50;99.90
52543;DHT22;38449;52.696;6.186;2023-04-08T04:07:49;3.40;99.90
52543;DHT22;38449;52.696;6.186;2023-04-08T04:10:15;3.40;99.90
52543;DHT22;38449;52.696;6.186;2023-04-08T04:12:42;3.40;99.90
52543;DHT22;38449;52.696;6.186;2023-04-08T04:15:10;3.30;99.90
52543;DHT22;38449;52.696;6.186;2023-04-08T04:17:37;3.30;99.90
52543;DHT22;38449;52.696;6.186;2023-04-08T04:20:04;3.30;99.90
52543;DHT22;38449;52.696;6.186;2023-04-08T04:22:31;3.30;99.90
52543;DHT22;38449;52.696;6.186;2023-04-08T04:24:59;3.30;99.90
52543;DHT22;38449;52.696;6.186;2023-04-08T04:27:26;3.30;99.90
52543;DHT22;38449;52.696;6.186;2023-04-08T04:29:54;3.20;99.90
52543;DHT22;38449;52.696;6.186;2023-04-08T04:32:21;3.20;99.90
52543;DHT22;38449;52.696;6.186;2023-04-08T04:34:47;3.10;99.90
52543;DHT22;38449;52.696;6.186;2023-04-08T04:37:14;3.10;99.90
52543;DHT22;38449;52.696;6.186;2023-04-08T04:39:41;3.10;99.90
52543;DHT22;38449;52.696;6.186;2023-04-08T04:42:08;3.10;99.90
52543;DHT22;38449;52.696;6.186;2023-04-08T04:44:35;3.10;99.90
52543;DHT22;38449;52.696;6.186;2023-04-08T04:47:02;3.00;99.90
52543;DHT22;38449;52.696;6.186;2023-04-08T04:49:28;3.00;99.90
52543;DHT22;38449;52.696;6.186;2023-04-08T04:51:54;3.00;99.90
52543;DHT22;38449;52.696;6.186;2023-04-08T04:54:21;3.00;99.90
52543;DHT22;38449;52.696;6.186;2023-04-08T04:56:47;3.00;99.90
52543;DHT22;38449;52.696;6.186;2023-04-08T04:59:14;3.00;99.90
52543;DHT22;38449;52.696;6.186;2023-04-08T05:01:40;3.00;99.90
52543;DHT22;38449;52.696;6.186;2023-04-08T05:04:06;3.00;99.90
52543;DHT22;38449;52.696;6.186;2023-04-08T05:06:35;3.00;99.90
52543;DHT22;38449;52.696;6.186;2023-04-08T05:09:02;3.00;99.90
52543;DHT22;38449;52.696;6.186;2023-04-08T05:11:29;2.90;99.90
52543;DHT22;38449;52.696;6.186;2023-04-08T05:13:55;3.00;99.90
52543;DHT22;38449;52.696;6.186;2023-04-08T05:16:21;2.90;99.90
52543;DHT22;38449;52.696;6.186;2023-04-08T05:18:50;2.90;99.90
52543;DHT22;38449;52.696;6.186;2023-04-08T05:21:16;2.90;99.90
52543;DHT22;38449;52.696;6.186;2023-04-08T05:23:42;2.90;99.90
52543;DHT22;38449;52.696;6.186;2023-04-08T05:26:09;2.90;99.90
52543;DHT22;38449;52.696;6.186;2023-04-08T05:28:35;3.00;99.90
52543;DHT22;38449;52.696;6.186;2023-04-08T05:31:15;3.00;99.90
52543;DHT22;38449;52.696;6.186;2023-04-08T05:33:41;3.00;99.90
52543;DHT22;38449;52.696;6.186;2023-04-08T05:36:10;3.10;99.90
52543;DHT22;38449;52.696;6.186;2023-04-08T05:38:37;3.10;99.90
52543;DHT22;38449;52.696;6.186;2023-04-08T05:41:03;3.10;99.90
52543;DHT22;38449;52.696;6.186;2023-04-08T05:43:32;3.10;99.90
52543;DHT22;38449;52.696;6.186;2023-04-08T05:45:58;3.20;99.90
52543;DHT22;38449;52.696;6.186;2023-04-08T05:48:31;3.30;99.90
52543;DHT22;38449;52.696;6.186;2023-04-08T05:50:58;3.30;99.90
52543;DHT22;38449;52.696;6.186;2023-04-08T05:53:24;3.30;99.90
52543;DHT22;38449;52.696;6.186;2023-04-08T05:55:51;3.30;99.90
52543;DHT22;38449;52.696;6.186;2023-04-08T05:58:17;3.30;99.90
52543;DHT22;38449;52.696;6.186;2023-04-08T06:00:47;3.40;99.90
52543;DHT22;38449;52.696;6.186;2023-04-08T06:03:13;3.40;99.90
52543;DHT22;38449;52.696;6.186;2023-04-08T06:05:47;3.50;99.90
52543;DHT22;38449;52.696;6.186;2023-04-08T06:08:14;3.50;99.90
52543;DHT22;38449;52.696;6.186;2023-04-08T06:10:48;3.60;99.90
52543;DHT22;38449;52.696;6.186;2023-04-08T06:13:18;4.00;99.90
52543;DHT22;38449;52.696;6.186;2023-04-08T06:15:47;4.60;99.90
52543;DHT22;38449;52.696;6.186;2023-04-08T06:18:16;4.80;99.90
52543;DHT22;38449;52.696;6.186;2023-04-08T06:20:44;4.70;99.90
52543;DHT22;38449;52.696;6.186;2023-04-08T06:23:10;4.60;99.90
52543;DHT22;38449;52.696;6.186;2023-04-08T06:25:43;4.60;99.90
52543;DHT22;38449;52.696;6.186;2023-04-08T06:28:09;4.50;99.90
52543;DHT22;38449;52.696;6.186;2023-04-08T06:30:36;4.50;99.90
52543;DHT22;38449;52.696;6.186;2023-04-08T06:33:06;4.40;99.90
52543;DHT22;38449;52.696;6.186;2023-04-08T06:35:32;4.40;99.90
52543;DHT22;38449;52.696;6.186;2023-04-08T06:37:58;4.40;99.90
52543;DHT22;38449;52.696;6.186;2023-04-08T06:40:24;4.40;99.90
52543;DHT22;38449;52.696;6.186;2023-04-08T06:42:51;4.40;99.90
52543;DHT22;38449;52.696;6.186;2023-04-08T06:45:19;4.40;99.90
52543;DHT22;38449;52.696;6.186;2023-04-08T06:47:46;4.50;99.90
52543;DHT22;38449;52.696;6.186;2023-04-08T06:50:12;4.50;99.90
52543;DHT22;38449;52.696;6.186;2023-04-08T06:52:39;4.60;99.90
52543;DHT22;38449;52.696;6.186;2023-04-08T06:55:07;4.60;99.90
52543;DHT22;38449;52.696;6.186;2023-04-08T06:57:33;4.70;99.90
52543;DHT22;38449;52.696;6.186;2023-04-08T06:59:59;4.70;99.90
52543;DHT22;38449;52.696;6.186;2023-04-08T07:02:25;4.80;99.90
52543;DHT22;38449;52.696;6.186;2023-04-08T07:04:52;4.90;99.90
52543;DHT22;38449;52.696;6.186;2023-04-08T07:07:18;5.00;99.90
52543;DHT22;38449;52.696;6.186;2023-04-08T07:09:45;5.00;99.90
52543;DHT22;38449;52.696;6.186;2023-04-08T07:12:12;5.10;99.90
52543;DHT22;38449;52.696;6.186;2023-04-08T07:14:38;5.20;99.90
52543;DHT22;38449;52.696;6.186;2023-04-08T07:17:04;5.30;99.90
52543;DHT22;38449;52.696;6.186;2023-04-08T07:19:31;5.40;99.90
52543;DHT22;38449;52.696;6.186;2023-04-08T07:22:04;5.60;99.90
52543;DHT22;38449;52.696;6.186;2023-04-08T07:24:37;5.70;99.90
52543;DHT22;38449;52.696;6.186;2023-04-08T07:27:04;5.80;99.90
52543;DHT22;38449;52.696;6.186;2023-04-08T07:29:36;5.80;99.90
52543;DHT22;38449;52.696;6.186;2023-04-08T07:32:11;5.90;99.90
52543;DHT22;38449;52.696;6.186;2023-04-08T07:34:38;5.90;99.90
52543;DHT22;38449;52.696;6.186;2023-04-08T07:37:10;6.00;99.90
52543;DHT22;38449;52.696;6.186;2023-04-08T07:39:38;6.10;99.90
52543;DHT22;38449;52.696;6.186;2023-04-08T07:42:05;6.20;99.90
52543;DHT22;38449;52.696;6.186;2023-04-08T07:44:31;6.30;99.90
52543;DHT22;38449;52.696;6.186;2023-04-08T07:46:58;6.40;99.90
52543;DHT22;38449;52.696;6.186;2023-04-08T07:49:24;6.40;99.90
52543;DHT22;38449;52.696;6.186;2023-04-08T07:51:51;6.60;99.90
52543;DHT22;38449;52.696;6.186;2023-04-08T07:54:18;6.60;99.90
52543;DHT22;38449;52.696;6.186;2023-04-08T07:56:44;6.60;99.90
52543;DHT22;38449;52.696;6.186;2023-04-08T07:59:11;6.60;99.90
52543;DHT22;38449;52.696;6.186;2023-04-08T08:01:37;6.60;99.90
52543;DHT22;38449;52.696;6.186;2023-04-08T08:04:05;6.70;99.90
52543;DHT22;38449;52.696;6.186;2023-04-08T08:06:31;6.70;99.90
52543;DHT22;38449;52.696;6.186;2023-04-08T08:08:58;6.70;99.90
52543;DHT22;38449;52.696;6.186;2023-04-08T08:11:24;6.80;99.90
52543;DHT22;38449;52.696;6.186;2023-04-08T08:13:53;6.80;99.90
52543;DHT22;38449;52.696;6.186;2023-04-08T08:16:28;6.90;99.90
52543;DHT22;38449;52.696;6.186;2023-04-08T08:18:54;7.00;99.90
52543;DHT22;38449;52.696;6.186;2023-04-08T08:21:21;7.20;99.90
52543;DHT22;38449;52.696;6.186;2023-04-08T08:23:47;7.30;99.90
52543;DHT22;38449;52.696;6.186;2023-04-08T08:26:16;7.50;99.90
52543;DHT22;38449;52.696;6.186;2023-04-08T08:28:50;7.60;99.90
52543;DHT22;38449;52.696;6.186;2023-04-08T08:31:23;7.80;99.90
52543;DHT22;38449;52.696;6.186;2023-04-08T08:33:49;7.80;99.90
52543;DHT22;38449;52.696;6.186;2023-04-08T08:36:15;7.90;99.90
52543;DHT22;38449;52.696;6.186;2023-04-08T08:38:42;8.10;99.90
52543;DHT22;38449;52.696;6.186;2023-04-08T08:41:09;8.50;99.90
52543;DHT22;38449;52.696;6.186;2023-04-08T08:43:36;8.70;99.90
52543;DHT22;38449;52.696;6.186;2023-04-08T08:46:03;8.90;99.90
52543;DHT22;38449;52.696;6.186;2023-04-08T08:48:30;9.10;99.90
52543;DHT22;38449;52.696;6.186;2023-04-08T08:50:57;9.20;99.90
52543;DHT22;38449;52.696;6.186;2023-04-08T08:53:30;9.20;99.90
52543;DHT22;38449;52.696;6.186;2023-04-08T08:56:03;9.10;99.90
52543;DHT22;38449;52.696;6.186;2023-04-08T08:58:35;9.10;99.90
52543;DHT22;38449;52.696;6.186;2023-04-08T09:01:01;9.10;99.90
52543;DHT22;38449;52.696;6.186;2023-04-08T09:03:27;9.10;99.90
52543;DHT22;38449;52.696;6.186;2023-04-08T09:05:58;9.20;99.90
52543;DHT22;38449;52.696;6.186;2023-04-08T09:11:15;9.40;99.90
52543;DHT22;38449;52.696;6.186;2023-04-08T09:13:42;9.40;99.90
52543;DHT22;38449;52.696;6.186;2023-04-08T09:16:10;9.60;99.90
52543;DHT22;38449;52.696;6.186;2023-04-08T09:18:38;9.60;99.90
52543;DHT22;38449;52.696;6.186;2023-04-08T09:21:11;9.80;99.90
52543;DHT22;38449;52.696;6.186;2023-04-08T09:23:41;9.80;99.90
52543;DHT22;38449;52.696;6.186;2023-04-08T09:26:09;9.80;99.90
52543;DHT22;38449;52.696;6.186;2023-04-08T09:28:36;10.00;99.90
52543;DHT22;38449;52.696;6.186;2023-04-08T09:31:24;10.10;99.90
52543;DHT22;38449;52.696;6.186;2023-04-08T09:34:00;10.30;99.90
52543;DHT22;38449;52.696;6.186;2023-04-08T09:36:27;10.40;99.90
52543;DHT22;38449;52.696;6.186;2023-04-08T09:38:54;10.60;99.90
52543;DHT22;38449;52.696;6.186;2023-04-08T09:41:21;10.60;99.90
52543;DHT22;38449;52.696;6.186;2023-04-08T09:43:52;10.70;99.90
52543;DHT22;38449;52.696;6.186;2023-04-08T09:46:32;10.70;99.90
52543;DHT22;38449;52.696;6.186;2023-04-08T09:49:26;10.80;99.90
52543;DHT22;38449;52.696;6.186;2023-04-08T09:52:06;10.70;99.90
52543;DHT22;38449;52.696;6.186;2023-04-08T10:00:17;10.90;99.90
52543;DHT22;38449;52.696;6.186;2023-04-08T10:05:46;11.00;99.90
52543;DHT22;38449;52.696;6.186;2023-04-08T10:08:14;11.10;99.90
52543;DHT22;38449;52.696;6.186;2023-04-08T10:10:41;11.20;99.90
52543;DHT22;38449;52.696;6.186;2023-04-08T10:13:08;11.40;99.90
52543;DHT22;38449;52.696;6.186;2023-04-08T10:15:35;11.40;99.90
52543;DHT22;38449;52.696;6.186;2023-04-08T10:23:09;11.40;99.90
52543;DHT22;38449;52.696;6.186;2023-04-08T10:30:52;11.70;99.90
52543;DHT22;38449;52.696;6.186;2023-04-08T10:33:31;11.70;99.90
52543;DHT22;38449;52.696;6.186;2023-04-08T10:36:10;11.90;99.90
52543;DHT22;38449;52.696;6.186;2023-04-08T10:38:43;11.80;99.90
52543;DHT22;38449;52.696;6.186;2023-04-08T10:41:23;12.00;99.90
52543;DHT22;38449;52.696;6.186;2023-04-08T10:43:49;12.10;99.90
52543;DHT22;38449;52.696;6.186;2023-04-08T10:46:19;12.20;99.90
52543;DHT22;38449;52.696;6.186;2023-04-08T10:48:58;12.40;99.90
52543;DHT22;38449;52.696;6.186;2023-04-08T10:51:29;12.50;99.90
52543;DHT22;38449;52.696;6.186;2023-04-08T10:54:05;12.60;99.90
52543;DHT22;38449;52.696;6.186;2023-04-08T10:56:48;12.50;99.90
52543;DHT22;38449;52.696;6.186;2023-04-08T10:59:16;12.50;99.90
52543;DHT22;38449;52.696;6.186;2023-04-08T11:01:52;12.50;99.90
52543;DHT22;38449;52.696;6.186;2023-04-08T11:04:18;12.50;99.90
52543;DHT22;38449;52.696;6.186;2023-04-08T11:06:51;12.40;99.90
52543;DHT22;38449;52.696;6.186;2023-04-08T11:09:17;12.40;99.90
52543;DHT22;38449;52.696;6.186;2023-04-08T11:11:44;12.40;99.90
52543;DHT22;38449;52.696;6.186;2023-04-08T11:14:18;12.30;99.90
52543;DHT22;38449;52.696;6.186;2023-04-08T11:16:47;12.10;99.90
52543;DHT22;38449;52.696;6.186;2023-04-08T11:19:17;12.00;99.90
52543;DHT22;38449;52.696;6.186;2023-04-08T11:21:44;11.90;99.90
52543;DHT22;38449;52.696;6.186;2023-04-08T11:24:11;12.00;99.90
52543;DHT22;38449;52.696;6.186;2023-04-08T11:26:38;12.10;99.90
52543;DHT22;38449;52.696;6.186;2023-04-08T11:29:05;12.20;99.90
52543;DHT22;38449;52.696;6.186;2023-04-08T11:31:37;12.20;99.90
52543;DHT22;38449;52.696;6.186;2023-04-08T11:34:03;12.40;99.90
52543;DHT22;38449;52.696;6.186;2023-04-08T11:36:30;12.40;99.90
52543;DHT22;38449;52.696;6.186;2023-04-08T11:38:56;12.30;99.90
52543;DHT22;38449;52.696;6.186;2023-04-08T11:41:23;12.30;99.90
52543;DHT22;38449;52.696;6.186;2023-04-08T11:44:02;12.40;99.90
52543;DHT22;38449;52.696;6.186;2023-04-08T11:46:35;12.50;99.90
52543;DHT22;38449;52.696;6.186;2023-04-08T11:50:02;12.60;99.90
52543;DHT22;38449;52.696;6.186;2023-04-08T11:53:29;12.70;99.90
52543;DHT22;38449;52.696;6.186;2023-04-08T11:56:30;12.80;99.90
52543;DHT22;38449;52.696;6.186;2023-04-08T11:58:59;12.80;99.90
52543;DHT22;38449;52.696;6.186;2023-04-08T12:01:26;12.80;99.90
52543;DHT22;38449;52.696;6.186;2023-04-08T12:04:54;12.90;99.90
52543;DHT22;38449;52.696;6.186;2023-04-08T12:07:52;13.10;99.90
52543;DHT22;38449;52.696;6.186;2023-04-08T12:10:19;13.30;99.90
52543;DHT22;38449;52.696;6.186;2023-04-08T12:12:45;13.30;99.90
52543;DHT22;38449;52.696;6.186;2023-04-08T12:15:12;13.40;99.90
52543;DHT22;38449;52.696;6.186;2023-04-08T12:17:38;13.60;99.90
52543;DHT22;38449;52.696;6.186;2023-04-08T12:20:05;13.70;99.90
52543;DHT22;38449;52.696;6.186;2023-04-08T12:22:31;13.70;99.90
52543;DHT22;38449;52.696;6.186;2023-04-08T12:24:58;13.60;99.90
52543;DHT22;38449;52.696;6.186;2023-04-08T12:27:30;13.70;99.90
52543;DHT22;38449;52.696;6.186;2023-04-08T12:29:59;13.70;99.90
52543;DHT22;38449;52.696;6.186;2023-04-08T12:32:25;13.80;99.90
52543;DHT22;38449;52.696;6.186;2023-04-08T12:34:57;13.90;99.90
52543;DHT22;38449;52.696;6.186;2023-04-08T12:37:23;13.90;99.90
52543;DHT22;38449;52.696;6.186;2023-04-08T12:39:49;13.80;99.90
52543;DHT22;38449;52.696;6.186;2023-04-08T12:42:16;13.80;99.90
52543;DHT22;38449;52.696;6.186;2023-04-08T12:44:42;13.60;99.90
52543;DHT22;38449;52.696;6.186;2023-04-08T12:47:17;13.60;99.90
52543;DHT22;38449;52.696;6.186;2023-04-08T12:49:46;13.70;99.90
52543;DHT22;38449;52.696;6.186;2023-04-08T12:52:13;13.70;99.90
52543;DHT22;38449;52.696;6.186;2023-04-08T12:54:39;13.80;99.90
52543;DHT22;38449;52.696;6.186;2023-04-08T12:57:05;13.90;99.90
52543;DHT22;38449;52.696;6.186;2023-04-08T12:59:34;13.90;99.90
52543;DHT22;38449;52.696;6.186;2023-04-08T13:02:00;13.80;99.90
52543;DHT22;38449;52.696;6.186;2023-04-08T13:04:30;13.80;99.90
52543;DHT22;38449;52.696;6.186;2023-04-08T13:06:56;13.90;99.90
52543;DHT22;38449;52.696;6.186;2023-04-08T13:09:24;13.80;99.90
52543;DHT22;38449;52.696;6.186;2023-04-08T13:11:50;13.70;99.90
52543;DHT22;38449;52.696;6.186;2023-04-08T13:14:17;13.50;99.90
52543;DHT22;38449;52.696;6.186;2023-04-08T13:16:43;13.40;99.90
52543;DHT22;38449;52.696;6.186;2023-04-08T13:19:15;13.40;99.90
52543;DHT22;38449;52.696;6.186;2023-04-08T13:21:42;13.60;99.90
52543;DHT22;38449;52.696;6.186;2023-04-08T13:24:15;13.70;99.90
52543;DHT22;38449;52.696;6.186;2023-04-08T13:26:41;13.80;99.90
52543;DHT22;38449;52.696;6.186;2023-04-08T13:29:09;13.70;99.90
52543;DHT22;38449;52.696;6.186;2023-04-08T13:31:36;13.60;99.90
52543;DHT22;38449;52.696;6.186;2023-04-08T13:34:02;13.50;99.90
52543;DHT22;38449;52.696;6.186;2023-04-08T13:36:28;13.50;99.90
52543;DHT22;38449;52.696;6.186;2023-04-08T13:38:56;13.70;99.90
52543;DHT22;38449;52.696;6.186;2023-04-08T13:41:29;13.60;99.90
52543;DHT22;38449;52.696;6.186;2023-04-08T13:43:55;13.60;99.90
52543;DHT22;38449;52.696;6.186;2023-04-08T13:46:28;13.70;99.90
52543;DHT22;38449;52.696;6.186;2023-04-08T13:48:54;13.70;99.90
52543;DHT22;38449;52.696;6.186;2023-04-08T13:51:21;13.50;99.90
52543;DHT22;38449;52.696;6.186;2023-04-08T13:53:54;13.40;99.90
52543;DHT22;38449;52.696;6.186;2023-04-08T13:56:20;13.40;99.90
52543;DHT22;38449;52.696;6.186;2023-04-08T13:58:53;13.60;99.90
52543;DHT22;38449;52.696;6.186;2023-04-08T14:01:19;13.60;99.90
52543;DHT22;38449;52.696;6.186;2023-04-08T14:03:46;13.60;99.90
52543;DHT22;38449;52.696;6.186;2023-04-08T14:06:14;13.60;99.90
52543;DHT22;38449;52.696;6.186;2023-04-08T14:08:41;13.50;99.90
52543;DHT22;38449;52.696;6.186;2023-04-08T14:11:07;13.50;99.90
52543;DHT22;38449;52.696;6.186;2023-04-08T14:13:34;13.40;99.90
52543;DHT22;38449;52.696;6.186;2023-04-08T14:16:01;13.30;99.90
52543;DHT22;38449;52.696;6.186;2023-04-08T14:18:28;13.20;99.90
52543;DHT22;38449;52.696;6.186;2023-04-08T14:20:54;13.20;99.90
52543;DHT22;38449;52.696;6.186;2023-04-08T14:23:21;13.20;99.90
52543;DHT22;38449;52.696;6.186;2023-04-08T14:25:47;13.20;99.90
52543;DHT22;38449;52.696;6.186;2023-04-08T14:28:21;13.30;99.90
52543;DHT22;38449;52.696;6.186;2023-04-08T14:30:47;13.20;99.90
52543;DHT22;38449;52.696;6.186;2023-04-08T14:33:13;13.10;99.90
52543;DHT22;38449;52.696;6.186;2023-04-08T14:35:40;13.20;99.90
52543;DHT22;38449;52.696;6.186;2023-04-08T14:38:06;13.20;99.90
52543;DHT22;38449;52.696;6.186;2023-04-08T14:40:33;12.90;99.90
52543;DHT22;38449;52.696;6.186;2023-04-08T14:42:59;12.80;99.90
52543;DHT22;38449;52.696;6.186;2023-04-08T14:45:26;12.90;99.90
52543;DHT22;38449;52.696;6.186;2023-04-08T14:47:52;12.90;99.90
52543;DHT22;38449;52.696;6.186;2023-04-08T14:50:19;12.90;99.90
52543;DHT22;38449;52.696;6.186;2023-04-08T14:52:54;12.70;99.90
52543;DHT22;38449;52.696;6.186;2023-04-08T14:55:20;12.70;99.90
52543;DHT22;38449;52.696;6.186;2023-04-08T14:57:47;12.50;99.90
52543;DHT22;38449;52.696;6.186;2023-04-08T15:00:14;12.30;99.90
52543;DHT22;38449;52.696;6.186;2023-04-08T15:02:40;12.30;99.90
52543;DHT22;38449;52.696;6.186;2023-04-08T15:05:07;12.10;99.90
52543;DHT22;38449;52.696;6.186;2023-04-08T15:07:33;12.20;99.90
52543;DHT22;38449;52.696;6.186;2023-04-08T15:10:01;12.20;99.90
52543;DHT22;38449;52.696;6.186;2023-04-08T15:12:27;12.40;99.90
52543;DHT22;38449;52.696;6.186;2023-04-08T15:14:54;12.50;99.90
52543;DHT22;38449;52.696;6.186;2023-04-08T15:17:22;12.60;99.90
52543;DHT22;38449;52.696;6.186;2023-04-08T15:19:48;12.70;99.90
52543;DHT22;38449;52.696;6.186;2023-04-08T15:22:15;12.80;99.90
52543;DHT22;38449;52.696;6.186;2023-04-08T15:24:41;12.70;99.90
52543;DHT22;38449;52.696;6.186;2023-04-08T15:27:07;12.70;99.90
52543;DHT22;38449;52.696;6.186;2023-04-08T15:29:41;12.80;99.90
52543;DHT22;38449;52.696;6.186;2023-04-08T15:32:08;12.60;99.90
52543;DHT22;38449;52.696;6.186;2023-04-08T15:34:42;12.60;99.90
52543;DHT22;38449;52.696;6.186;2023-04-08T15:37:08;12.60;99.90
52543;DHT22;38449;52.696;6.186;2023-04-08T15:39:35;12.40;99.90
52543;DHT22;38449;52.696;6.186;2023-04-08T15:42:01;12.30;99.90
52543;DHT22;38449;52.696;6.186;2023-04-08T15:44:30;12.20;99.90
52543;DHT22;38449;52.696;6.186;2023-04-08T15:46:57;12.20;99.90
52543;DHT22;38449;52.696;6.186;2023-04-08T15:49:23;12.30;99.90
52543;DHT22;38449;52.696;6.186;2023-04-08T15:51:50;12.30;99.90
52543;DHT22;38449;52.696;6.186;2023-04-08T15:54:18;12.20;99.90
52543;DHT22;38449;52.696;6.186;2023-04-08T15:56:45;12.20;99.90
52543;DHT22;38449;52.696;6.186;2023-04-08T15:59:15;12.20;99.90
52543;DHT22;38449;52.696;6.186;2023-04-08T16:01:42;12.00;99.90
52543;DHT22;38449;52.696;6.186;2023-04-08T16:04:10;12.00;99.90
52543;DHT22;38449;52.696;6.186;2023-04-08T16:06:36;11.90;99.90
52543;DHT22;38449;52.696;6.186;2023-04-08T16:09:03;11.80;99.90
52543;DHT22;38449;52.696;6.186;2023-04-08T16:11:30;11.70;99.90
52543;DHT22;38449;52.696;6.186;2023-04-08T16:13:56;11.70;99.90